Time;durP1;ratioP1;P1;durP2;ratioP2;P2;SDS_P1;SDS_P2;PMS_P1;PMS_P2;Temp;Humidity;BMP_temperature;BMP_pressure;BME280_temperature;BME280_humidity;BME280_pressure;Samples;Min_cycle;Max_cycle;Signal;HPM_P1;HPM_P2
2021/08/26 00:01:08;;;;;;;30.38;7.53;;;;;;;;;;4995308;28;20124;-84
2021/08/26 00:06:22;;;;;;;52.53;7.93;;;;;;;;;;4993260;28;20419;-85
2021/08/26 00:08:54;;;;;;;48.08;8.05;;;;;;;;;;4990791;28;20172;-84
2021/08/26 00:11:23;;;;;;;42.72;8.40;;;;;;;;;;5009489;28;20050;-85
2021/08/26 00:13:52;;;;;;;35.70;9.80;;;;;;;;;;5008602;28;20121;-85
2021/08/26 00:16:40;;;;;;;36.05;9.43;;;;;;;;;;4993612;28;20066;-85
2021/08/26 00:19:08;;;;;;;43.10;7.65;;;;;;;;;;5011173;28;20105;-84
2021/08/26 00:21:35;;;;;;;44.78;8.38;;;;;;;;;;5012816;28;20100;-84
2021/08/26 00:24:02;;;;;;;42.85;8.02;;;;;;;;;;5012225;28;20077;-84
2021/08/26 00:26:31;;;;;;;41.47;8.30;;;;;;;;;;5007806;28;20133;-84
2021/08/26 00:29:04;;;;;;;38.20;7.07;;;;;;;;;;5006596;28;20084;-84
2021/08/26 00:31:32;;;;;;;48.67;8.05;;;;;;;;;;5012417;28;20065;-84
2021/08/26 00:34:08;;;;;;;38.90;7.88;;;;;;;;;;4993002;28;20137;-84
2021/08/26 00:36:35;;;;;;;41.03;8.25;;;;;;;;;;4990943;28;20112;-84
2021/08/26 00:39:03;;;;;;;31.00;7.72;;;;;;;;;;5010144;28;20054;-84
2021/08/26 00:41:30;;;;;;;43.95;8.50;;;;;;;;;;5010850;28;20670;-84
2021/08/26 00:43:58;;;;;;;47.47;8.00;;;;;;;;;;4995184;28;20084;-84
2021/08/26 00:46:26;;;;;;;44.35;8.38;;;;;;;;;;4994959;28;20084;-85
2021/08/26 00:48:53;;;;;;;45.35;8.18;;;;;;;;;;5008912;28;20057;-84
2021/08/26 00:51:20;;;;;;;38.85;7.47;;;;;;;;;;4989238;28;20105;-85
2021/08/26 00:53:48;;;;;;;37.45;8.07;;;;;;;;;;5007089;28;20049;-85
2021/08/26 00:56:18;;;;;;;49.25;7.00;;;;;;;;;;5012257;28;20049;-84
2021/08/26 00:58:47;;;;;;;44.88;8.00;;;;;;;;;;4994629;28;20050;-84
2021/08/26 01:01:15;;;;;;;59.58;10.45;;;;;;;;;;4991169;28;20125;-84
2021/08/26 01:03:57;;;;;;;47.65;8.60;;;;;;;;;;4995440;28;20061;-84
2021/08/26 01:06:35;;;;;;;39.50;7.72;;;;;;;;;;5006186;28;20533;-84
2021/08/26 01:09:04;;;;;;;54.50;8.82;;;;;;;;;;5009869;28;20888;-84
2021/08/26 01:11:39;;;;;;;55.60;7.95;;;;;;;;;;5006916;28;20085;-84
2021/08/26 01:14:06;;;;;;;34.40;6.90;;;;;;;;;;4992815;28;20077;-84
2021/08/26 01:16:36;;;;;;;55.80;8.73;;;;;;;;;;5007615;28;20053;-84
2021/08/26 01:19:03;;;;;;;45.05;7.57;;;;;;;;;;5008170;28;20595;-84
2021/08/26 01:21:31;;;;;;;54.63;8.68;;;;;;;;;;4993323;28;20487;-83
2021/08/26 01:24:00;;;;;;;44.30;8.00;;;;;;;;;;4993182;28;20490;-84
2021/08/26 01:26:36;;;;;;;39.97;7.63;;;;;;;;;;5010908;28;20137;-84
2021/08/26 01:29:03;;;;;;;;;;;;;;;;;;5008631;28;20109;-83
2021/08/26 01:31:30;;;;;;;34.25;7.93;;;;;;;;;;5008064;28;19964;-84
2021/08/26 01:33:58;;;;;;;38.13;7.82;;;;;;;;;;4974035;28;20050;-83
2021/08/26 01:36:28;;;;;;;47.75;9.43;;;;;;;;;;4985163;28;20092;-83
2021/08/26 01:39:02;;;;;;;39.20;7.13;;;;;;;;;;4989755;28;20133;-83
2021/08/26 01:41:36;;;;;;;48.17;7.85;;;;;;;;;;5008917;28;20129;-84
2021/08/26 01:44:03;;;;;;;44.75;8.75;;;;;;;;;;5005889;28;20070;-84
2021/08/26 01:46:30;;;;;;;39.30;8.23;;;;;;;;;;4999635;28;20085;-84
2021/08/26 01:48:58;;;;;;;48.88;8.90;;;;;;;;;;5001430;28;20138;-84
2021/08/26 01:51:25;;;;;;;48.53;8.07;;;;;;;;;;5007684;28;20457;-84
2021/08/26 01:53:52;;;;;;;49.10;8.60;;;;;;;;;;4989514;28;20141;-84
2021/08/26 01:56:19;;;;;;;46.88;8.85;;;;;;;;;;4993255;28;20092;-84
2021/08/26 01:58:46;;;;;;;41.53;9.27;;;;;;;;;;5010386;28;20065;-83
2021/08/26 02:01:15;;;;;;;40.08;8.23;;;;;;;;;;5010046;28;20108;-83
2021/08/26 02:03:43;;;;;;;43.67;8.45;;;;;;;;;;4993281;28;20104;-83
2021/08/26 02:06:10;;;;;;;46.28;9.32;;;;;;;;;;4973929;28;1060365;-83
2021/08/26 02:08:37;;;;;;;39.65;9.02;;;;;;;;;;5011081;28;20822;-83
2021/08/26 02:11:05;;;;;;;47.17;8.57;;;;;;;;;;5005863;28;20065;-83
2021/08/26 02:13:56;;;;;;;36.10;8.20;;;;;;;;;;4990477;28;20137;-83
2021/08/26 02:16:23;;;;;;;30.75;6.93;;;;;;;;;;5011187;28;20057;-83
2021/08/26 02:18:50;;;;;;;47.67;10.00;;;;;;;;;;4993599;28;20060;-83
2021/08/26 02:21:17;;;;;;;41.25;7.35;;;;;;;;;;4993469;28;20208;-84
2021/08/26 02:23:47;;;;;;;46.22;8.02;;;;;;;;;;5011138;28;20129;-83
2021/08/26 02:26:14;;;;;;;30.33;7.32;;;;;;;;;;5011101;28;20462;-83
2021/08/26 02:28:41;;;;;;;47.10;8.05;;;;;;;;;;5011504;28;20046;-83
2021/08/26 02:31:08;;;;;;;33.97;7.18;;;;;;;;;;4985658;28;20782;-83
2021/08/26 02:33:35;;;;;;;42.20;7.63;;;;;;;;;;4999466;28;20164;-83
2021/08/26 02:36:02;;;;;;;35.10;8.27;;;;;;;;;;5003057;28;20073;-83
2021/08/26 02:38:30;;;;;;;46.28;7.18;;;;;;;;;;4992610;28;20133;-83
2021/08/26 02:40:57;;;;;;;60.42;8.48;;;;;;;;;;5000778;28;20097;-83
2021/08/26 02:43:24;;;;;;;40.15;7.20;;;;;;;;;;5007129;28;20058;-84
2021/08/26 02:45:51;;;;;;;41.55;7.93;;;;;;;;;;5010051;28;20081;-83
2021/08/26 02:48:19;;;;;;;39.58;8.43;;;;;;;;;;5013586;28;20076;-83
2021/08/26 02:50:46;;;;;;;41.13;7.57;;;;;;;;;;5000085;28;20137;-83
2021/08/26 02:53:17;;;;;;;43.50;9.63;;;;;;;;;;4989152;28;20101;-83
2021/08/26 02:55:44;;;;;;;46.13;8.40;;;;;;;;;;5001834;28;20081;-83
2021/08/26 02:58:12;;;;;;;31.48;8.10;;;;;;;;;;5014670;28;20089;-83
2021/08/26 03:00:40;;;;;;;37.72;7.30;;;;;;;;;;5014101;28;20065;-83
2021/08/26 03:03:07;;;;;;;40.50;8.23;;;;;;;;;;5005400;28;20129;-83
2021/08/26 03:05:34;;;;;;;36.33;7.00;;;;;;;;;;4980536;28;20046;-83
2021/08/26 03:08:02;;;;;;;31.27;7.28;;;;;;;;;;5014380;28;20941;-83
2021/08/26 03:10:29;;;;;;;34.28;6.63;;;;;;;;;;5014656;28;20046;-83
2021/08/26 03:12:56;;;;;;;46.35;6.63;;;;;;;;;;5013988;28;20074;-83
2021/08/26 03:15:23;;;;;;;29.70;5.35;;;;;;;;;;4993565;28;20716;-83
2021/08/26 03:17:51;;;;;;;31.67;5.53;;;;;;;;;;5014037;28;20058;-83
2021/08/26 03:20:20;;;;;;;33.45;5.18;;;;;;;;;;5011703;28;20736;-82
2021/08/26 03:22:48;;;;;;;21.40;4.43;;;;;;;;;;5000175;28;20077;-83
2021/08/26 03:25:15;;;;;;;29.60;4.82;;;;;;;;;;5014442;28;20084;-83
2021/08/26 03:27:43;;;;;;;20.00;3.88;;;;;;;;;;4996424;28;20088;-83
2021/08/26 03:30:11;;;;;;;22.67;4.25;;;;;;;;;;5014306;28;20057;-82
2021/08/26 03:32:43;;;;;;;27.67;4.65;;;;;;;;;;5002425;28;20069;-83
2021/08/26 03:35:10;;;;;;;18.25;4.15;;;;;;;;;;4981402;28;20509;-83
2021/08/26 03:37:37;;;;;;;18.00;4.00;;;;;;;;;;5013078;28;20141;-83
2021/08/26 03:40:04;;;;;;;21.15;4.25;;;;;;;;;;5002140;28;20450;-83
2021/08/26 03:42:31;;;;;;;18.35;3.80;;;;;;;;;;4996180;28;20093;-83
2021/08/26 03:45:01;;;;;;;22.92;3.58;;;;;;;;;;5013783;28;20073;-83
2021/08/26 03:47:28;;;;;;;19.60;3.83;;;;;;;;;;5013872;28;20081;-83
2021/08/26 03:50:03;;;;;;;17.63;4.28;;;;;;;;;;5013988;28;20100;-83
2021/08/26 03:52:30;;;;;;;17.00;3.08;;;;;;;;;;4993016;28;20791;-83
2021/08/26 03:54:59;;;;;;;15.55;2.90;;;;;;;;;;4993908;28;20125;-84
2021/08/26 03:57:27;;;;;;;15.60;3.10;;;;;;;;;;4998185;28;20874;-83
2021/08/26 04:00:01;;;;;;;19.35;4.90;;;;;;;;;;4995291;28;20663;-83
2021/08/26 04:02:28;;;;;;;16.33;4.07;;;;;;;;;;4995650;28;20050;-83
2021/08/26 04:05:00;;;;;;;13.80;3.75;;;;;;;;;;5011435;28;20133;-83
2021/08/26 04:07:31;;;;;;;12.82;3.35;;;;;;;;;;5010981;28;20854;-83
2021/08/26 04:10:02;;;;;;;16.90;4.07;;;;;;;;;;5012412;28;20046;-82
2021/08/26 04:12:30;;;;;;;15.93;3.35;;;;;;;;;;5009581;28;20077;-82
2021/08/26 04:14:58;;;;;;;10.57;2.90;;;;;;;;;;5010758;28;20053;-83
2021/08/26 04:17:25;;;;;;;14.18;3.30;;;;;;;;;;4995365;28;20077;-83
2021/08/26 04:20:03;;;;;;;22.40;3.22;;;;;;;;;;5008258;28;20133;-83
2021/08/26 04:22:30;;;;;;;13.95;3.13;;;;;;;;;;5002332;28;20145;-82
2021/08/26 04:24:58;;;;;;;14.20;2.65;;;;;;;;;;5005177;28;20042;-83
2021/08/26 04:27:25;;;;;;;16.88;3.88;;;;;;;;;;4992598;28;20137;-82
2021/08/26 04:29:52;;;;;;;19.30;2.85;;;;;;;;;;5008636;28;20133;-82
2021/08/26 04:32:19;;;;;;;15.52;2.67;;;;;;;;;;5001360;28;20082;-82
2021/08/26 04:34:46;;;;;;;20.15;3.20;;;;;;;;;;4999120;28;20045;-82
2021/08/26 04:37:13;;;;;;;8.02;2.47;;;;;;;;;;5012487;28;20077;-82
2021/08/26 04:39:40;;;;;;;10.80;3.15;;;;;;;;;;4994949;28;20142;-83
2021/08/26 04:42:07;;;;;;;10.25;2.30;;;;;;;;;;5006727;28;20897;-83
2021/08/26 04:44:35;;;;;;;12.52;3.70;;;;;;;;;;5008355;28;20454;-82
2021/08/26 04:47:02;;;;;;;7.68;2.53;;;;;;;;;;4991889;28;20057;-83
2021/08/26 04:49:29;;;;;;;17.65;2.55;;;;;;;;;;4999145;28;20134;-83
2021/08/26 04:51:56;;;;;;;11.18;2.13;;;;;;;;;;5006135;28;20129;-83
2021/08/26 04:54:23;;;;;;;10.00;2.25;;;;;;;;;;5007590;28;20196;-83
2021/08/26 04:56:50;;;;;;;18.33;3.10;;;;;;;;;;4987217;28;20125;-83
2021/08/26 04:59:18;;;;;;;6.65;2.08;;;;;;;;;;5004502;28;20085;-83
2021/08/26 05:01:45;;;;;;;12.07;2.38;;;;;;;;;;5009035;28;20085;-83
2021/08/26 05:04:12;;;;;;;4.07;2.05;;;;;;;;;;5012519;28;20085;-84
2021/08/26 05:06:39;;;;;;;19.77;3.25;;;;;;;;;;4994462;28;20073;-83
2021/08/26 05:09:14;;;;;;;7.00;2.00;;;;;;;;;;5007190;28;20065;-84
2021/08/26 05:11:43;;;;;;;16.45;2.92;;;;;;;;;;4993569;28;20446;-85
2021/08/26 05:14:10;;;;;;;8.27;2.53;;;;;;;;;;4993311;28;20476;-86
2021/08/26 05:16:37;;;;;;;9.57;2.40;;;;;;;;;;4994891;28;20451;-80
2021/08/26 05:19:04;;;;;;;9.48;1.98;;;;;;;;;;5004942;28;20085;-82
2021/08/26 05:21:32;;;;;;;8.43;2.65;;;;;;;;;;4989717;28;20058;-86
2021/08/26 05:23:59;;;;;;;11.25;2.40;;;;;;;;;;4999431;28;20077;-80
2021/08/26 05:26:26;;;;;;;10.75;2.35;;;;;;;;;;5011231;28;20081;-84
2021/08/26 05:28:56;;;;;;;7.85;2.25;;;;;;;;;;5007210;28;20450;-82
2021/08/26 05:31:23;;;;;;;11.52;2.55;;;;;;;;;;4994505;28;20237;-81
2021/08/26 05:33:51;;;;;;;13.25;2.22;;;;;;;;;;4993803;28;20077;-79
2021/08/26 05:36:18;;;;;;;7.07;1.75;;;;;;;;;;5011401;28;20054;-79
2021/08/26 05:38:45;;;;;;;7.25;1.30;;;;;;;;;;5010087;28;20099;-82
2021/08/26 05:41:12;;;;;;;11.02;1.60;;;;;;;;;;4994324;28;20507;-81
2021/08/26 05:43:39;;;;;;;3.53;1.60;;;;;;;;;;4996534;28;20053;-84
2021/08/26 05:46:07;;;;;;;5.28;1.60;;;;;;;;;;4991259;28;20082;-83
2021/08/26 05:48:34;;;;;;;6.80;1.65;;;;;;;;;;5004304;28;20052;-83
2021/08/26 05:51:01;;;;;;;5.32;1.48;;;;;;;;;;5007123;28;20076;-79
2021/08/26 05:53:29;;;;;;;13.57;2.08;;;;;;;;;;5003474;28;20133;-83
2021/08/26 05:55:56;;;;;;;4.68;1.10;;;;;;;;;;5003126;28;20565;-81
2021/08/26 05:58:23;;;;;;;3.22;0.82;;;;;;;;;;5006216;28;20136;-80
2021/08/26 06:00:50;;;;;;;1.63;0.73;;;;;;;;;;4986024;28;20112;-82
2021/08/26 06:03:17;;;;;;;3.63;0.70;;;;;;;;;;4998697;28;20066;-85
2021/08/26 06:05:45;;;;;;;2.13;0.63;;;;;;;;;;5001030;28;20100;-86
2021/08/26 06:08:13;;;;;;;3.50;0.52;;;;;;;;;;5007501;28;20077;-85
2021/08/26 06:10:41;;;;;;;4.10;0.70;;;;;;;;;;5007210;28;20129;-86
2021/08/26 06:13:10;;;;;;;5.55;0.60;;;;;;;;;;5012170;28;20092;-86
2021/08/26 06:15:37;;;;;;;3.47;0.70;;;;;;;;;;5011458;28;20046;-83
2021/08/26 06:18:04;;;;;;;1.65;0.52;;;;;;;;;;4993653;28;20671;-83
2021/08/26 06:20:34;;;;;;;4.80;0.40;;;;;;;;;;4990668;28;20519;-85
2021/08/26 06:23:01;;;;;;;4.72;0.70;;;;;;;;;;5010065;28;20061;-86
2021/08/26 06:25:28;;;;;;;4.55;0.68;;;;;;;;;;4998117;28;20089;-85
2021/08/26 06:28:04;;;;;;;4.10;0.60;;;;;;;;;;4998146;28;20056;-86
2021/08/26 06:30:32;;;;;;;8.50;0.70;;;;;;;;;;4994758;28;20462;-86
2021/08/26 06:32:59;;;;;;;1.98;0.50;;;;;;;;;;5013453;28;20413;-85
2021/08/26 06:35:27;;;;;;;1.70;0.73;;;;;;;;;;5014308;28;20061;-85
2021/08/26 06:37:54;;;;;;;5.65;1.45;;;;;;;;;;5014062;28;20077;-86
2021/08/26 06:40:22;;;;;;;5.72;0.55;;;;;;;;;;4993143;28;20081;-85
2021/08/26 06:42:49;;;;;;;2.38;0.80;;;;;;;;;;5015191;28;20058;-85
2021/08/26 06:45:16;;;;;;;4.18;0.80;;;;;;;;;;5014234;28;20078;-85
2021/08/26 06:47:43;;;;;;;2.03;0.40;;;;;;;;;;5013609;28;20053;-86
2021/08/26 06:50:10;;;;;;;5.45;0.68;;;;;;;;;;5013920;28;20050;-85
2021/08/26 06:52:37;;;;;;;3.78;0.60;;;;;;;;;;5013831;28;20093;-85
2021/08/26 06:55:05;;;;;;;1.30;0.50;;;;;;;;;;5012962;28;20046;-86
2021/08/26 06:57:33;;;;;;;1.00;0.40;;;;;;;;;;5013741;28;20084;-84
2021/08/26 07:00:00;;;;;;;4.35;0.60;;;;;;;;;;5012231;28;20069;-85
2021/08/26 07:02:28;;;;;;;2.97;0.40;;;;;;;;;;4994928;28;20050;-84
2021/08/26 07:04:56;;;;;;;3.10;0.60;;;;;;;;;;4996624;28;20045;-85
2021/08/26 07:07:23;;;;;;;4.18;0.77;;;;;;;;;;5012369;28;20164;-84
2021/08/26 07:10:00;;;;;;;2.53;0.80;;;;;;;;;;5013743;28;20118;-84
2021/08/26 07:12:30;;;;;;;2.47;0.70;;;;;;;;;;4994824;28;20058;-84
2021/08/26 07:14:58;;;;;;;2.35;0.40;;;;;;;;;;4973249;28;20050;-84
2021/08/26 07:17:26;;;;;;;3.83;0.52;;;;;;;;;;4990814;28;20049;-84
2021/08/26 07:19:53;;;;;;;1.92;0.50;;;;;;;;;;5008965;28;20092;-83
2021/08/26 07:22:20;;;;;;;4.00;0.52;;;;;;;;;;5007636;28;20108;-83
2021/08/26 07:24:47;;;;;;;4.45;0.60;;;;;;;;;;4990136;28;20514;-85
2021/08/26 07:27:17;;;;;;;3.25;0.60;;;;;;;;;;5008597;28;20096;-83
2021/08/26 07:29:44;;;;;;;3.17;0.45;;;;;;;;;;5013882;28;20132;-84
2021/08/26 07:32:11;;;;;;;4.20;0.52;;;;;;;;;;5012403;28;20144;-84
2021/08/26 07:34:45;;;;;;;1.42;0.63;;;;;;;;;;5008587;28;20078;-84
2021/08/26 07:37:12;;;;;;;4.07;0.55;;;;;;;;;;5013704;28;20517;-83
2021/08/26 07:39:39;;;;;;;8.35;0.38;;;;;;;;;;5012736;28;20117;-84
2021/08/26 07:42:06;;;;;;;4.28;0.50;;;;;;;;;;5013730;28;20073;-85
2021/08/26 07:44:34;;;;;;;6.70;0.70;;;;;;;;;;5012678;28;20137;-84
2021/08/26 07:47:01;;;;;;;2.13;0.40;;;;;;;;;;5012248;28;20766;-84
2021/08/26 07:49:28;;;;;;;3.90;0.32;;;;;;;;;;5013682;28;20137;-84
2021/08/26 07:51:55;;;;;;;6.10;0.80;;;;;;;;;;5012678;28;20081;-84
2021/08/26 07:54:28;;;;;;;1.50;0.50;;;;;;;;;;5012181;28;20081;-85
2021/08/26 07:56:57;;;;;;;6.82;0.90;;;;;;;;;;5012405;28;20723;-84
2021/08/26 07:59:24;;;;;;;3.53;0.65;;;;;;;;;;5012854;28;20085;-84
2021/08/26 08:01:52;;;;;;;2.25;0.55;;;;;;;;;;5012032;28;20132;-84
2021/08/26 08:04:19;;;;;;;2.92;0.70;;;;;;;;;;5013616;28;20060;-84
2021/08/26 08:06:47;;;;;;;1.42;0.50;;;;;;;;;;5012284;28;20149;-82
2021/08/26 08:09:14;;;;;;;2.88;0.50;;;;;;;;;;5013382;28;20811;-84
2021/08/26 08:11:41;;;;;;;1.90;0.43;;;;;;;;;;5012102;28;20085;-82
2021/08/26 08:14:09;;;;;;;5.85;0.68;;;;;;;;;;5013281;28;20135;-83
2021/08/26 08:16:37;;;;;;;3.15;0.30;;;;;;;;;;5011108;28;20050;-83
2021/08/26 08:19:04;;;;;;;2.10;0.40;;;;;;;;;;5013077;28;20133;-82
2021/08/26 08:21:32;;;;;;;1.77;0.40;;;;;;;;;;5012197;28;20058;-82
2021/08/26 08:24:01;;;;;;;4.57;0.75;;;;;;;;;;5011827;28;20053;-82
2021/08/26 08:26:28;;;;;;;4.55;0.57;;;;;;;;;;4991512;28;20054;-83
2021/08/26 08:28:55;;;;;;;2.70;0.47;;;;;;;;;;5011970;28;20128;-82
2021/08/26 08:31:23;;;;;;;2.53;0.32;;;;;;;;;;5012693;28;20121;-81
2021/08/26 08:33:50;;;;;;;3.75;0.47;;;;;;;;;;5012873;28;20054;-82
2021/08/26 08:36:19;;;;;;;3.15;0.50;;;;;;;;;;4992339;28;20485;-83
2021/08/26 08:38:47;;;;;;;1.92;0.50;;;;;;;;;;4992097;28;20498;-82
2021/08/26 08:41:17;;;;;;;2.63;0.30;;;;;;;;;;4991919;28;20455;-83
2021/08/26 08:43:48;;;;;;;3.33;0.63;;;;;;;;;;4991794;28;20061;-81
2021/08/26 08:46:19;;;;;;;2.33;0.40;;;;;;;;;;4994260;28;20132;-82
2021/08/26 08:48:46;;;;;;;5.97;0.55;;;;;;;;;;5003269;28;20096;-83
2021/08/26 08:51:14;;;;;;;1.77;0.38;;;;;;;;;;5012745;28;20077;-82
2021/08/26 08:53:41;;;;;;;4.63;0.60;;;;;;;;;;5012216;28;20653;-82
2021/08/26 08:56:09;;;;;;;0.82;0.20;;;;;;;;;;5011930;28;20092;-82
2021/08/26 08:58:40;;;;;;;0.60;0.30;;;;;;;;;;5010893;28;20136;-82
2021/08/26 09:01:09;;;;;;;1.25;0.47;;;;;;;;;;5012213;28;20867;-81
2021/08/26 09:03:37;;;;;;;2.38;0.40;;;;;;;;;;5007886;28;20054;-80
2021/08/26 09:06:05;;;;;;;1.75;0.25;;;;;;;;;;4994469;28;20085;-81
2021/08/26 09:08:32;;;;;;;4.88;0.70;;;;;;;;;;5011468;28;20080;-82
2021/08/26 09:11:20;;;;;;;3.85;0.30;;;;;;;;;;4991256;28;20487;-81
2021/08/26 09:13:55;;;;;;;0.65;0.30;;;;;;;;;;4994351;28;20149;-83
2021/08/26 09:16:39;;;;;;;2.38;0.40;;;;;;;;;;5012418;28;20189;-83
2021/08/26 09:19:25;;;;;;;2.60;0.20;;;;;;;;;;4989339;28;20173;-84
2021/08/26 09:21:52;;;;;;;1.10;0.30;;;;;;;;;;5012122;28;20100;-84
2021/08/26 09:24:19;;;;;;;2.42;0.40;;;;;;;;;;5010222;28;20180;-83
2021/08/26 09:26:47;;;;;;;0.98;0.30;;;;;;;;;;4994267;28;20149;-82
2021/08/26 09:29:15;;;;;;;1.80;0.50;;;;;;;;;;5007365;28;20558;-84
2021/08/26 09:31:44;;;;;;;3.95;0.55;;;;;;;;;;5008280;28;20088;-84
2021/08/26 09:34:11;;;;;;;2.92;0.28;;;;;;;;;;5010725;28;20046;-83
2021/08/26 09:36:51;;;;;;;3.38;0.20;;;;;;;;;;5005604;28;20554;-82
2021/08/26 09:39:20;;;;;;;0.55;0.20;;;;;;;;;;5006692;28;20049;-83
2021/08/26 09:42:01;;;;;;;0.35;0.20;;;;;;;;;;5009499;28;20085;-82
2021/08/26 09:44:30;;;;;;;0.98;0.30;;;;;;;;;;5006888;28;20141;-82
2021/08/26 09:47:02;;;;;;;3.67;0.30;;;;;;;;;;5008259;28;20495;-83
2021/08/26 09:49:39;;;;;;;9.65;0.43;;;;;;;;;;5011807;28;20097;-83
2021/08/26 09:52:09;;;;;;;2.83;0.20;;;;;;;;;;4994039;28;20077;-85
2021/08/26 09:54:38;;;;;;;2.42;0.30;;;;;;;;;;4994146;28;20137;-86
2021/08/26 09:57:07;;;;;;;2.50;0.30;;;;;;;;;;4996634;28;20077;-83
2021/08/26 09:59:49;;;;;;;0.75;0.10;;;;;;;;;;4998405;28;20134;-83
2021/08/26 10:02:16;;;;;;;5.97;0.30;;;;;;;;;;5008993;28;20390;-84
2021/08/26 10:04:44;;;;;;;0.60;0.20;;;;;;;;;;5014664;28;20081;-83
2021/08/26 10:07:11;;;;;;;0.90;0.20;;;;;;;;;;4997987;28;20137;-83
2021/08/26 10:09:40;;;;;;;0.70;0.30;;;;;;;;;;5015343;28;20165;-84
2021/08/26 10:12:11;;;;;;;0.68;0.20;;;;;;;;;;4998057;28;20149;-83
2021/08/26 10:14:39;;;;;;;2.22;0.30;;;;;;;;;;4997786;28;20149;-83
2021/08/26 10:17:13;;;;;;;4.60;0.40;;;;;;;;;;5015340;28;20096;-83
2021/08/26 10:19:41;;;;;;;5.15;0.40;;;;;;;;;;4997840;28;20127;-83
2021/08/26 10:22:15;;;;;;;0.88;0.40;;;;;;;;;;4998183;28;20100;-82
2021/08/26 10:24:42;;;;;;;4.55;0.60;;;;;;;;;;5014712;28;20060;-82
2021/08/26 10:27:11;;;;;;;1.25;0.55;;;;;;;;;;5015500;28;20470;-83
2021/08/26 10:29:43;;;;;;;3.35;0.57;;;;;;;;;;5014589;28;20089;-82
2021/08/26 10:32:13;;;;;;;1.23;0.40;;;;;;;;;;4996918;28;20546;-82
2021/08/26 10:34:41;;;;;;;0.82;0.40;;;;;;;;;;4995243;28;20065;-82
2021/08/26 10:37:08;;;;;;;3.00;0.50;;;;;;;;;;4995671;28;20435;-83
2021/08/26 10:39:40;;;;;;;2.88;0.50;;;;;;;;;;5006579;28;20073;-81
2021/08/26 10:42:22;;;;;;;3.25;1.40;;;;;;;;;;4996310;28;20089;-82
2021/08/26 10:45:09;;;;;;;7.18;2.00;;;;;;;;;;4996942;28;20520;-83
2021/08/26 10:47:56;;;;;;;3.47;0.70;;;;;;;;;;4997530;28;20141;-84
2021/08/26 10:50:23;;;;;;;4.05;0.45;;;;;;;;;;5009057;28;20148;-81
2021/08/26 10:52:54;;;;;;;3.33;0.60;;;;;;;;;;4989497;28;20066;-82
2021/08/26 10:55:31;;;;;;;1.42;0.63;;;;;;;;;;5011453;28;20054;-82
2021/08/26 10:58:17;;;;;;;4.25;1.75;;;;;;;;;;5014616;28;20133;-83
2021/08/26 11:00:45;;;;;;;7.53;1.90;;;;;;;;;;5004621;28;20556;-81
2021/08/26 11:03:45;;;;;;;2.35;1.40;;;;;;;;;;5008909;28;20054;-83
2021/08/26 11:06:19;;;;;;;3.25;0.80;;;;;;;;;;5006672;28;20546;-82
2021/08/26 11:08:53;;;;;;;5.70;1.25;;;;;;;;;;5006565;28;20056;-82
2021/08/26 11:11:27;;;;;;;8.70;2.88;;;;;;;;;;4993442;28;20046;-82
2021/08/26 11:14:17;;;;;;;1.80;0.90;;;;;;;;;;4992923;28;20101;-83
2021/08/26 11:16:48;;;;;;;2.08;0.40;;;;;;;;;;4992965;28;20097;-82
2021/08/26 11:19:16;;;;;;;1.95;0.50;;;;;;;;;;5003392;28;20084;-81
2021/08/26 11:24:13;;;;;;;10.18;2.15;;;;;;;;;;5013602;28;20605;-81
2021/08/26 11:26:46;;;;;;;10.43;2.78;;;;;;;;;;4992897;28;20141;-81
2021/08/26 11:29:25;;;;;;;10.82;2.53;;;;;;;;;;5012353;28;20077;-82
2021/08/26 11:31:56;;;;;;;3.85;1.92;;;;;;;;;;5011032;28;20384;-82
2021/08/26 11:34:28;;;;;;;1.52;0.47;;;;;;;;;;5008618;28;20906;-81
2021/08/26 11:36:58;;;;;;;6.72;2.45;;;;;;;;;;4993489;28;20058;-82
2021/08/26 11:39:26;;;;;;;10.05;1.10;;;;;;;;;;4993031;28;20064;-82
2021/08/26 11:41:55;;;;;;;11.20;4.45;;;;;;;;;;4994233;28;20046;-81
2021/08/26 11:44:22;;;;;;;12.30;4.13;;;;;;;;;;4992741;28;20137;-81
2021/08/26 11:46:51;;;;;;;9.95;4.10;;;;;;;;;;5016292;28;20383;-81
2021/08/26 11:49:18;;;;;;;5.93;0.63;;;;;;;;;;5013472;28;20746;-81
2021/08/26 11:51:45;;;;;;;6.13;1.70;;;;;;;;;;4995520;28;20069;-81
2021/08/26 11:54:14;;;;;;;3.65;1.15;;;;;;;;;;4995810;28;20049;-81
2021/08/26 11:56:52;;;;;;;8.63;2.60;;;;;;;;;;5013430;28;20077;-81
2021/08/26 11:59:28;;;;;;;20.02;6.82;;;;;;;;;;4996285;28;20101;-82
2021/08/26 12:02:14;;;;;;;3.17;0.68;;;;;;;;;;5004871;28;20141;-82
2021/08/26 12:04:42;;;;;;;2.83;0.57;;;;;;;;;;5011350;28;20216;-81
2021/08/26 12:07:09;;;;;;;2.05;0.50;;;;;;;;;;5013090;28;20178;-82
2021/08/26 12:09:38;;;;;;;2.47;0.35;;;;;;;;;;5012700;28;20145;-82
2021/08/26 12:12:12;;;;;;;8.10;0.60;;;;;;;;;;5012030;28;20125;-81
2021/08/26 12:14:40;;;;;;;6.00;1.70;;;;;;;;;;5012121;28;20054;-82
2021/08/26 12:17:14;;;;;;;11.13;1.73;;;;;;;;;;5008680;28;20097;-81
2021/08/26 12:19:42;;;;;;;8.35;0.63;;;;;;;;;;4992001;28;20088;-82
2021/08/26 12:22:17;;;;;;;1.77;0.68;;;;;;;;;;5011802;28;20121;-81
2021/08/26 12:24:55;;;;;;;2.13;0.65;;;;;;;;;;5011590;28;20140;-81
2021/08/26 12:27:29;;;;;;;1.45;0.50;;;;;;;;;;4992713;28;20777;-81
2021/08/26 12:29:57;;;;;;;3.35;0.65;;;;;;;;;;5002162;28;20556;-81
2021/08/26 12:32:25;;;;;;;3.05;0.40;;;;;;;;;;5012152;28;20128;-81
2021/08/26 12:34:52;;;;;;;6.22;0.57;;;;;;;;;;5011155;28;20046;-82
2021/08/26 12:37:19;;;;;;;3.50;0.50;;;;;;;;;;4994997;28;20084;-82
2021/08/26 12:39:59;;;;;;;11.35;0.80;;;;;;;;;;4995123;28;20050;-82
2021/08/26 12:42:26;;;;;;;3.75;0.70;;;;;;;;;;4990019;28;20141;-82
2021/08/26 12:44:55;;;;;;;3.03;0.50;;;;;;;;;;4993889;28;20144;-82
2021/08/26 12:47:26;;;;;;;3.63;0.90;;;;;;;;;;4993452;28;20054;-82
2021/08/26 12:49:54;;;;;;;1.95;0.60;;;;;;;;;;4975703;28;20145;-82
2021/08/26 12:52:32;;;;;;;6.68;0.73;;;;;;;;;;4975656;28;20104;-82
2021/08/26 12:55:00;;;;;;;4.75;0.65;;;;;;;;;;4990882;28;20483;-81
2021/08/26 12:57:33;;;;;;;2.55;0.82;;;;;;;;;;5012347;28;20128;-81
2021/08/26 13:00:01;;;;;;;2.85;0.60;;;;;;;;;;5011580;28;20046;-82
2021/08/26 13:02:28;;;;;;;4.93;1.15;;;;;;;;;;5006699;28;20483;-84
2021/08/26 13:05:06;;;;;;;4.82;0.70;;;;;;;;;;5011704;28;20050;-84
2021/08/26 13:07:34;;;;;;;7.30;0.90;;;;;;;;;;5012828;28;20054;-84
2021/08/26 13:10:03;;;;;;;1.73;0.60;;;;;;;;;;5008941;28;20108;-85
2021/08/26 13:12:31;;;;;;;4.78;0.82;;;;;;;;;;5005990;28;20130;-84
2021/08/26 13:14:59;;;;;;;5.30;1.05;;;;;;;;;;5010558;28;20877;-84
2021/08/26 13:17:28;;;;;;;1.90;0.75;;;;;;;;;;4996186;28;20049;-84
2021/08/26 13:20:05;;;;;;;7.97;1.05;;;;;;;;;;4995621;28;20143;-85
2021/08/26 13:22:34;;;;;;;2.25;0.63;;;;;;;;;;4994682;28;20049;-85
2021/08/26 13:25:09;;;;;;;3.28;0.90;;;;;;;;;;5012323;28;20077;-84
2021/08/26 13:27:37;;;;;;;4.32;0.90;;;;;;;;;;4995158;28;20078;-84
2021/08/26 13:30:06;;;;;;;2.85;0.50;;;;;;;;;;5011578;28;20049;-85
2021/08/26 13:32:33;;;;;;;3.05;0.85;;;;;;;;;;5010421;28;20078;-86
2021/08/26 13:35:07;;;;;;;2.05;0.77;;;;;;;;;;4991251;28;20713;-83
2021/08/26 13:37:35;;;;;;;3.25;0.77;;;;;;;;;;4995490;28;20074;-82
2021/08/26 13:40:02;;;;;;;2.78;0.80;;;;;;;;;;5001061;28;20798;-83
2021/08/26 13:42:32;;;;;;;5.28;0.80;;;;;;;;;;4992813;28;20096;-82
2021/08/26 13:45:02;;;;;;;4.38;1.08;;;;;;;;;;5001821;28;20130;-84
2021/08/26 13:47:30;;;;;;;8.35;2.28;;;;;;;;;;5007227;28;20108;-84
2021/08/26 13:50:02;;;;;;;3.25;0.80;;;;;;;;;;5020026;28;20640;-83
2021/08/26 13:52:32;;;;;;;6.13;1.15;;;;;;;;;;5005819;28;20085;-82
2021/08/26 13:55:00;;;;;;;2.58;0.55;;;;;;;;;;4989843;28;20053;-84
2021/08/26 13:57:27;;;;;;;4.22;0.75;;;;;;;;;;5003896;28;20558;-85
2021/08/26 13:59:57;;;;;;;2.03;0.93;;;;;;;;;;5008946;28;20086;-84
2021/08/26 14:02:26;;;;;;;2.90;0.70;;;;;;;;;;4997301;28;20469;-85
2021/08/26 14:04:53;;;;;;;6.10;0.98;;;;;;;;;;5002124;28;21364;-85
2021/08/26 14:07:24;;;;;;;5.70;0.90;;;;;;;;;;4989953;28;20074;-85
2021/08/26 14:09:54;;;;;;;3.72;0.77;;;;;;;;;;5007513;28;20046;-84
2021/08/26 14:12:21;;;;;;;4.22;0.80;;;;;;;;;;4999213;28;20122;-84
2021/08/26 14:14:49;;;;;;;3.55;0.82;;;;;;;;;;5016726;28;20066;-82
2021/08/26 14:17:16;;;;;;;6.30;1.10;;;;;;;;;;4997549;28;20739;-81
2021/08/26 14:19:43;;;;;;;2.67;0.77;;;;;;;;;;5006513;28;20113;-82
2021/08/26 14:22:10;;;;;;;14.27;1.70;;;;;;;;;;5005418;28;20117;-81
2021/08/26 14:24:38;;;;;;;8.55;1.63;;;;;;;;;;4998348;28;20054;-81
2021/08/26 14:27:07;;;;;;;6.55;1.23;;;;;;;;;;5000171;28;20048;-80
2021/08/26 14:29:35;;;;;;;8.15;1.35;;;;;;;;;;5003618;28;20137;-81
2021/08/26 14:32:04;;;;;;;8.07;1.33;;;;;;;;;;4998694;28;20052;-79
2021/08/26 14:34:33;;;;;;;5.40;1.40;;;;;;;;;;4988515;28;20852;-80
2021/08/26 14:37:12;;;;;;;3.25;1.00;;;;;;;;;;4996981;28;20187;-80
2021/08/26 14:39:40;;;;;;;3.95;1.00;;;;;;;;;;4999315;28;20136;-81
2021/08/26 14:42:09;;;;;;;7.95;1.02;;;;;;;;;;4998442;28;20137;-80
2021/08/26 14:44:36;;;;;;;5.15;1.42;;;;;;;;;;5001455;28;20112;-81
2021/08/26 14:47:04;;;;;;;4.57;1.23;;;;;;;;;;5007765;28;20046;-82
2021/08/26 14:49:35;;;;;;;6.38;1.52;;;;;;;;;;4991973;28;20047;-82
2021/08/26 14:52:03;;;;;;;5.30;1.27;;;;;;;;;;5002163;28;20050;-80
2021/08/26 14:54:30;;;;;;;8.43;1.50;;;;;;;;;;4997841;28;20092;-80
2021/08/26 14:56:58;;;;;;;8.27;1.45;;;;;;;;;;5002425;28;20096;-82